Terminal Aerodrome Forecast
Issued by NWS

Home | Current Version | Previous Version | Text Only | Print | Product List | Glossary On
Versions: 1 2 3 4 5 6 7 8 9 10 11 12 13 14 15 16
899
FTPA31 PHFO 292336
TAFSTU
TAF
NSTU 292336Z 3000/3024 06008KT P6SM VCSH SCT015 SCT040 BKN100
     FM301500 08008KT P6SM VCSH SCT015 BKN040 BKN100=

USA.gov is the U.S. government's official web portal to all federal, state and local government web resources and services.